Time;durP1;ratioP1;P1;durP2;ratioP2;P2;SDS_P1;SDS_P2;PMS_P1;PMS_P2;Temp;Humidity;BMP_temperature;BMP_pressure;BME280_temperature;BME280_humidity;BME280_pressure;Samples;Min_cycle;Max_cycle;Signal;HPM_P1;HPM_P2
2021/04/11 00:00:32;;;;;;;13.98;10.98;;;;;;;;;;5095705;28;20047;-75
2021/04/11 00:02:58;;;;;;;14.00;12.10;;;;;;;;;;5095740;28;20028;-75
2021/04/11 00:05:30;;;;;;;14.30;12.20;;;;;;;;;;5095688;28;20028;-75
2021/04/11 00:07:56;;;;;;;17.70;13.02;;;;;;;;;;5095570;28;20055;-75
2021/04/11 00:10:25;;;;;;;15.57;13.23;;;;;;;;;;5094995;28;20434;-75
2021/04/11 00:12:51;;;;;;;14.45;12.35;;;;;;;;;;5094248;28;20039;-75
2021/04/11 00:15:17;;;;;;;14.07;12.60;;;;;;;;;;5095100;28;20054;-75
2021/04/11 00:17:43;;;;;;;15.65;12.20;;;;;;;;;;5095297;28;20040;-75
2021/04/11 00:20:09;;;;;;;16.70;13.90;;;;;;;;;;5095385;28;20032;-75
2021/04/11 00:22:34;;;;;;;15.20;13.02;;;;;;;;;;5095636;28;20032;-75
2021/04/11 00:25:00;;;;;;;15.68;12.68;;;;;;;;;;5095068;28;20169;-75
2021/04/11 00:27:25;;;;;;;13.20;11.68;;;;;;;;;;5095129;28;20060;-75
2021/04/11 00:29:51;;;;;;;12.07;10.88;;;;;;;;;;5094792;28;20048;-75
2021/04/11 00:32:16;;;;;;;14.13;12.07;;;;;;;;;;5095335;28;20039;-75
2021/04/11 00:34:42;;;;;;;12.98;11.68;;;;;;;;;;5095081;28;20024;-75
2021/04/11 00:37:07;;;;;;;13.40;11.95;;;;;;;;;;5095125;28;20054;-75
2021/04/11 00:39:33;;;;;;;23.33;14.50;;;;;;;;;;5086436;28;20063;-75
2021/04/11 00:42:05;;;;;;;15.40;12.65;;;;;;;;;;5074508;28;20032;-75
2021/04/11 00:44:30;;;;;;;13.80;11.85;;;;;;;;;;5074663;28;20123;-75
2021/04/11 00:46:57;;;;;;;14.70;12.25;;;;;;;;;;5074605;28;20166;-75
2021/04/11 00:49:33;;;;;;;14.70;11.98;;;;;;;;;;5073039;28;20611;-74
2021/04/11 00:51:59;;;;;;;13.43;11.93;;;;;;;;;;5074449;28;20107;-74
2021/04/11 00:54:25;;;;;;;12.18;10.88;;;;;;;;;;5072855;28;20510;-74
2021/04/11 00:56:51;;;;;;;13.48;11.48;;;;;;;;;;5072962;28;20039;-74
2021/04/11 00:59:18;;;;;;;16.67;12.82;;;;;;;;;;5090274;28;20571;-75
2021/04/11 01:01:45;;;;;;;15.93;12.82;;;;;;;;;;5073299;28;20036;-75
2021/04/11 01:04:12;;;;;;;15.80;13.48;;;;;;;;;;5072930;28;20433;-75
2021/04/11 01:06:46;;;;;;;18.75;14.95;;;;;;;;;;5072758;28;20036;-75
2021/04/11 01:09:18;;;;;;;15.00;12.93;;;;;;;;;;5073283;28;20028;-75
2021/04/11 01:11:45;;;;;;;17.70;12.23;;;;;;;;;;5091048;28;20085;-75
2021/04/11 01:14:13;;;;;;;15.48;12.13;;;;;;;;;;5094403;28;20028;-75
2021/04/11 01:16:39;;;;;;;16.52;12.50;;;;;;;;;;5094251;28;20035;-75
2021/04/11 01:19:08;;;;;;;14.43;12.02;;;;;;;;;;5092816;28;20032;-75
2021/04/11 01:21:52;;;;;;;15.18;12.80;;;;;;;;;;5094377;28;20097;-75
2021/04/11 01:24:41;;;;;;;15.98;12.95;;;;;;;;;;5075890;28;20047;-75
2021/04/11 01:27:09;;;;;;;16.08;14.32;;;;;;;;;;5092614;28;20036;-74
2021/04/11 01:29:36;;;;;;;14.90;12.68;;;;;;;;;;5092528;28;20031;-75
2021/04/11 01:32:05;;;;;;;16.40;13.25;;;;;;;;;;5093638;28;20055;-75
2021/04/11 01:34:31;;;;;;;12.48;11.18;;;;;;;;;;5092670;28;20098;-75
2021/04/11 01:36:59;;;;;;;12.57;11.20;;;;;;;;;;5093923;28;20126;-75
2021/04/11 01:39:28;;;;;;;15.07;12.43;;;;;;;;;;5092634;28;20035;-75
2021/04/11 01:41:56;;;;;;;13.68;12.07;;;;;;;;;;5092060;28;20497;-75
2021/04/11 01:44:28;;;;;;;13.85;12.38;;;;;;;;;;5093879;28;20036;-75
2021/04/11 01:46:54;;;;;;;13.60;11.27;;;;;;;;;;5092384;28;20569;-75
2021/04/11 01:49:23;;;;;;;18.42;13.40;;;;;;;;;;5092345;28;20036;-74
2021/04/11 01:51:55;;;;;;;14.82;12.63;;;;;;;;;;5094472;28;20058;-74
2021/04/11 01:54:25;;;;;;;14.23;12.73;;;;;;;;;;5093664;28;20543;-74
2021/04/11 01:56:51;;;;;;;14.50;12.82;;;;;;;;;;5093895;28;20040;-75
2021/04/11 01:59:28;;;;;;;16.00;13.95;;;;;;;;;;5091940;28;20115;-75
2021/04/11 02:01:58;;;;;;;15.52;12.50;;;;;;;;;;5092274;28;20036;-74
2021/04/11 02:04:23;;;;;;;16.80;12.50;;;;;;;;;;5092604;28;20169;-74
2021/04/11 02:06:52;;;;;;;16.95;12.43;;;;;;;;;;5092249;28;20032;-74
2021/04/11 02:09:37;;;;;;;13.73;11.05;;;;;;;;;;5092449;28;20493;-74
2021/04/11 02:12:23;;;;;;;13.35;10.88;;;;;;;;;;5084964;28;20126;-74
2021/04/11 02:14:56;;;;;;;12.38;11.10;;;;;;;;;;5092608;28;20112;-74
2021/04/11 02:17:22;;;;;;;12.98;10.68;;;;;;;;;;5093599;28;20032;-74
2021/04/11 02:19:51;;;;;;;13.40;10.98;;;;;;;;;;5092367;28;20051;-74
2021/04/11 02:22:23;;;;;;;13.20;10.50;;;;;;;;;;5093567;28;20024;-74
2021/04/11 02:24:50;;;;;;;12.82;10.75;;;;;;;;;;5093093;28;20032;-74
2021/04/11 02:27:19;;;;;;;13.27;11.35;;;;;;;;;;5092689;28;20389;-74
2021/04/11 02:29:46;;;;;;;13.07;11.38;;;;;;;;;;5093553;28;20067;-75
2021/04/11 02:32:13;;;;;;;14.77;11.77;;;;;;;;;;5092157;28;20028;-74
2021/04/11 02:34:38;;;;;;;14.25;12.55;;;;;;;;;;5091892;28;20427;-73
2021/04/11 02:37:14;;;;;;;13.57;11.98;;;;;;;;;;5091633;28;20040;-72
2021/04/11 02:39:41;;;;;;;16.57;13.20;;;;;;;;;;5092151;28;20032;-72
2021/04/11 02:42:16;;;;;;;13.13;11.73;;;;;;;;;;5090497;28;20422;-72
2021/04/11 02:44:44;;;;;;;17.33;15.23;;;;;;;;;;5091735;28;20107;-72
2021/04/11 02:47:12;;;;;;;17.10;13.77;;;;;;;;;;5093056;28;20111;-73
2021/04/11 02:49:39;;;;;;;17.08;14.57;;;;;;;;;;5092756;28;20032;-72
2021/04/11 02:52:18;;;;;;;18.08;14.30;;;;;;;;;;5093858;28;20028;-72
2021/04/11 02:54:44;;;;;;;16.90;14.07;;;;;;;;;;5094048;28;20036;-72
2021/04/11 02:57:17;;;;;;;15.50;13.35;;;;;;;;;;5093510;28;20028;-73
2021/04/11 02:59:44;;;;;;;19.05;16.25;;;;;;;;;;5093299;28;20070;-72
2021/04/11 03:02:10;;;;;;;15.93;13.75;;;;;;;;;;5093410;28;20048;-72
2021/04/11 03:04:44;;;;;;;18.23;14.63;;;;;;;;;;5092882;28;20032;-72
2021/04/11 03:07:17;;;;;;;16.75;13.48;;;;;;;;;;5091712;28;20028;-72
2021/04/11 03:10:04;;;;;;;17.73;14.30;;;;;;;;;;5092147;28;20032;-72
2021/04/11 03:12:38;;;;;;;14.73;12.55;;;;;;;;;;5092201;28;20054;-72
2021/04/11 03:15:06;;;;;;;18.33;15.80;;;;;;;;;;5091398;28;20028;-72
2021/04/11 03:17:32;;;;;;;21.55;17.23;;;;;;;;;;5092908;28;20086;-72
2021/04/11 03:20:12;;;;;;;22.05;18.55;;;;;;;;;;5092557;28;20085;-73
2021/04/11 03:22:41;;;;;;;22.98;19.52;;;;;;;;;;5092252;28;20020;-73
2021/04/11 03:25:13;;;;;;;22.33;18.08;;;;;;;;;;5091714;28;20085;-72
2021/04/11 03:27:48;;;;;;;21.52;17.05;;;;;;;;;;5092185;28;20032;-72
2021/04/11 03:30:38;;;;;;;20.40;16.90;;;;;;;;;;5091730;28;20101;-73
2021/04/11 03:33:08;;;;;;;20.55;16.50;;;;;;;;;;5090677;28;20054;-72
2021/04/11 03:35:38;;;;;;;21.58;17.30;;;;;;;;;;5096476;28;20078;-72
2021/04/11 03:38:04;;;;;;;19.52;16.02;;;;;;;;;;5095862;28;20347;-73
2021/04/11 03:40:34;;;;;;;18.00;14.85;;;;;;;;;;5095614;28;20493;-73
2021/04/11 03:43:07;;;;;;;19.70;14.95;;;;;;;;;;5096079;28;20030;-73
2021/04/11 03:45:36;;;;;;;18.00;15.48;;;;;;;;;;5094437;28;20055;-73
2021/04/11 03:48:20;;;;;;;17.13;14.82;;;;;;;;;;5094869;28;20127;-73
2021/04/11 03:50:54;;;;;;;16.92;15.13;;;;;;;;;;5096600;28;20506;-73
2021/04/11 03:53:26;;;;;;;17.48;14.30;;;;;;;;;;5094775;28;20131;-73
2021/04/11 03:56:01;;;;;;;18.73;15.70;;;;;;;;;;5078080;28;20544;-73
2021/04/11 03:58:32;;;;;;;18.13;15.75;;;;;;;;;;5095037;28;20032;-72
2021/04/11 04:01:11;;;;;;;15.00;12.80;;;;;;;;;;5094939;28;20032;-73
2021/04/11 04:03:42;;;;;;;15.80;13.32;;;;;;;;;;5094938;28;20473;-73
2021/04/11 04:06:20;;;;;;;15.60;13.77;;;;;;;;;;5093964;28;20085;-73
2021/04/11 04:08:46;;;;;;;18.20;15.60;;;;;;;;;;5094788;28;20491;-73
2021/04/11 04:11:33;;;;;;;18.10;15.00;;;;;;;;;;5094704;28;20044;-73
2021/04/11 04:14:17;;;;;;;16.73;13.93;;;;;;;;;;5095834;28;20160;-73
2021/04/11 04:16:51;;;;;;;15.77;13.48;;;;;;;;;;5093003;28;20028;-74
2021/04/11 04:19:27;;;;;;;17.92;14.50;;;;;;;;;;5095361;28;20028;-73
2021/04/11 04:22:13;;;;;;;20.73;16.23;;;;;;;;;;5094044;28;20032;-72
2021/04/11 04:25:25;;;;;;;19.30;15.48;;;;;;;;;;5094058;28;20039;-74
2021/04/11 04:28:43;;;;;;;19.48;14.98;;;;;;;;;;5094805;28;20032;-72
2021/04/11 04:31:26;;;;;;;15.13;13.52;;;;;;;;;;5092685;28;20047;-73
2021/04/11 04:34:45;;;;;;;16.70;13.60;;;;;;;;;;5093634;28;20036;-73
2021/04/11 04:37:19;;;;;;;25.42;14.15;;;;;;;;;;5086713;28;20382;-72
2021/04/11 04:39:57;;;;;;;21.08;17.73;;;;;;;;;;5093433;28;20032;-73
2021/04/11 04:43:12;;;;;;;18.77;14.43;;;;;;;;;;5095493;28;20032;-73
2021/04/11 04:45:53;;;;;;;19.13;15.45;;;;;;;;;;5094158;28;20035;-72
2021/04/11 04:48:31;;;;;;;19.40;15.60;;;;;;;;;;5093304;28;20055;-72
2021/04/11 04:51:27;;;;;;;25.63;20.85;;;;;;;;;;5094442;28;20035;-72
2021/04/11 04:54:20;;;;;;;;;;;;;;;;;;5095496;28;20496;-73
2021/04/11 04:56:55;;;;;;;23.77;18.92;;;;;;;;;;5095029;28;19965;-73
2021/04/11 04:59:26;;;;;;;22.70;18.37;;;;;;;;;;5093176;28;20028;-73
2021/04/11 05:02:06;;;;;;;20.75;17.13;;;;;;;;;;5092797;28;20036;-73
2021/04/11 05:04:47;;;;;;;20.65;16.35;;;;;;;;;;5092997;28;20063;-74
2021/04/11 05:07:17;;;;;;;18.27;15.88;;;;;;;;;;5092919;28;20401;-73
2021/04/11 05:09:49;;;;;;;23.13;18.20;;;;;;;;;;5092449;28;20318;-73
2021/04/11 05:12:46;;;;;;;26.63;21.10;;;;;;;;;;5094160;28;20460;-74
2021/04/11 05:15:21;;;;;;;25.17;20.45;;;;;;;;;;5094105;28;20379;-74
2021/04/11 05:18:05;;;;;;;29.42;22.40;;;;;;;;;;5092644;28;20028;-74
2021/04/11 05:20:39;;;;;;;32.45;23.83;;;;;;;;;;5076299;28;20082;-74
2021/04/11 05:23:17;;;;;;;26.95;19.95;;;;;;;;;;5092848;28;20028;-74
2021/04/11 05:25:56;;;;;;;22.95;19.13;;;;;;;;;;5092860;28;20122;-74
2021/04/11 05:28:28;;;;;;;22.13;17.52;;;;;;;;;;5075859;28;20032;-75
2021/04/11 05:31:04;;;;;;;20.15;17.10;;;;;;;;;;5094029;28;20043;-75
2021/04/11 05:33:33;;;;;;;20.95;16.67;;;;;;;;;;5092739;28;20347;-75
2021/04/11 05:36:07;;;;;;;22.35;17.88;;;;;;;;;;5094120;28;20034;-75
2021/04/11 05:39:02;;;;;;;19.92;17.38;;;;;;;;;;5092226;28;20127;-75
2021/04/11 05:41:57;;;;;;;22.88;18.52;;;;;;;;;;5073601;28;20035;-75
2021/04/11 05:44:32;;;;;;;20.77;17.38;;;;;;;;;;5085930;28;20048;-75
2021/04/11 05:47:07;;;;;;;19.70;15.77;;;;;;;;;;5093532;28;20115;-75
2021/04/11 05:49:42;;;;;;;20.02;17.67;;;;;;;;;;5093879;28;20413;-75
2021/04/11 05:52:12;;;;;;;29.45;20.80;;;;;;;;;;5093388;28;20028;-75
2021/04/11 05:54:46;;;;;;;30.77;22.52;;;;;;;;;;5093319;28;20081;-75
2021/04/11 05:57:25;;;;;;;23.35;20.33;;;;;;;;;;5092599;28;20397;-75
2021/04/11 06:00:01;;;;;;;23.33;19.13;;;;;;;;;;5093456;28;20044;-73
2021/04/11 06:02:48;;;;;;;21.98;18.67;;;;;;;;;;5094023;28;20085;-73
2021/04/11 06:05:22;;;;;;;21.05;17.10;;;;;;;;;;5092326;28;20040;-73
2021/04/11 06:07:59;;;;;;;23.70;17.83;;;;;;;;;;5093754;28;20039;-73
2021/04/11 06:10:33;;;;;;;21.00;16.75;;;;;;;;;;5092288;28;20085;-73
2021/04/11 06:13:08;;;;;;;19.88;17.00;;;;;;;;;;5078156;28;20032;-74
2021/04/11 06:15:39;;;;;;;17.90;15.95;;;;;;;;;;5072857;28;20032;-75
2021/04/11 06:18:07;;;;;;;19.13;15.15;;;;;;;;;;5072361;28;20059;-74
2021/04/11 06:20:35;;;;;;;17.90;14.65;;;;;;;;;;5074074;28;20036;-73
2021/04/11 06:23:25;;;;;;;19.98;16.35;;;;;;;;;;5073513;28;20364;-74
2021/04/11 06:26:02;;;;;;;20.23;15.70;;;;;;;;;;5073184;28;20037;-74
2021/04/11 06:28:48;;;;;;;21.40;17.50;;;;;;;;;;5073330;28;20040;-73
2021/04/11 06:31:20;;;;;;;19.55;16.10;;;;;;;;;;5072460;28;20052;-74
2021/04/11 06:33:49;;;;;;;18.52;16.13;;;;;;;;;;5073028;28;20065;-73
2021/04/11 06:36:42;;;;;;;18.30;15.38;;;;;;;;;;5073089;28;20131;-75
2021/04/11 06:39:34;;;;;;;19.52;17.00;;;;;;;;;;5070739;28;20417;-74
2021/04/11 06:42:30;;;;;;;19.65;15.98;;;;;;;;;;5086220;28;20057;-75
2021/04/11 06:45:21;;;;;;;22.50;16.92;;;;;;;;;;5092708;28;20024;-74
2021/04/11 06:48:14;;;;;;;20.10;17.58;;;;;;;;;;5092969;28;20039;-75
2021/04/11 06:50:58;;;;;;;23.70;17.42;;;;;;;;;;5093078;28;20119;-74
2021/04/11 06:53:58;;;;;;;26.95;18.67;;;;;;;;;;5093340;28;20038;-74
2021/04/11 06:56:55;;;;;;;21.50;16.77;;;;;;;;;;5091686;28;20401;-75
2021/04/11 06:59:52;;;;;;;19.92;17.00;;;;;;;;;;5093106;28;20036;-75
2021/04/11 07:02:26;;;;;;;;;;;;;;;;;;5093777;28;20043;-75
2021/04/11 07:05:09;;;;;;;22.70;17.00;;;;;;;;;;5093352;28;20006;-75
2021/04/11 07:07:37;;;;;;;20.42;17.10;;;;;;;;;;5092388;28;20074;-75
2021/04/11 07:10:41;;;;;;;20.95;15.73;;;;;;;;;;5095909;28;20052;-74
2021/04/11 07:13:52;;;;;;;17.88;14.48;;;;;;;;;;5096451;28;20497;-75
2021/04/11 07:16:31;;;;;;;18.38;15.15;;;;;;;;;;5096706;28;20032;-75
2021/04/11 07:19:17;;;;;;;18.13;13.75;;;;;;;;;;5096753;28;20484;-75
2021/04/11 07:21:58;;;;;;;17.23;13.57;;;;;;;;;;5096433;28;20040;-73
2021/04/11 07:24:47;;;;;;;16.00;12.82;;;;;;;;;;5094764;28;20032;-72
2021/04/11 07:27:23;;;;;;;15.23;12.73;;;;;;;;;;5096353;28;20024;-72
2021/04/11 07:30:14;;;;;;;24.67;18.50;;;;;;;;;;5095884;28;20086;-74
2021/04/11 07:32:51;;;;;;;20.88;16.20;;;;;;;;;;5096020;28;20042;-72
2021/04/11 07:35:40;;;;;;;20.10;13.13;;;;;;;;;;5096197;28;20135;-72
2021/04/11 07:38:11;;;;;;;15.52;12.68;;;;;;;;;;5096115;28;20134;-74
2021/04/11 07:41:07;;;;;;;14.75;11.38;;;;;;;;;;5096571;28;20051;-78
2021/04/11 07:44:10;;;;;;;13.25;11.07;;;;;;;;;;5079948;28;20466;-75
2021/04/11 07:46:45;;;;;;;12.40;10.30;;;;;;;;;;5076827;28;20036;-75
2021/04/11 07:49:54;;;;;;;15.93;13.07;;;;;;;;;;5076980;28;20085;-76
2021/04/11 07:52:42;;;;;;;16.35;13.65;;;;;;;;;;5066389;28;20056;-75
2021/04/11 07:55:18;;;;;;;15.90;13.75;;;;;;;;;;5075417;28;20119;-75
2021/04/11 07:58:08;;;;;;;16.40;14.57;;;;;;;;;;5074348;28;20032;-75
2021/04/11 08:00:54;;;;;;;19.23;16.80;;;;;;;;;;5075774;28;20047;-76
2021/04/11 08:03:22;;;;;;;17.50;15.40;;;;;;;;;;5075614;28;20033;-76
2021/04/11 08:06:28;;;;;;;16.23;13.32;;;;;;;;;;5075686;28;20486;-76
2021/04/11 08:09:13;;;;;;;15.20;13.00;;;;;;;;;;5053341;28;20036;-76
2021/04/11 08:12:08;;;;;;;19.00;13.68;;;;;;;;;;5075047;28;20070;-76
2021/04/11 08:14:48;;;;;;;16.45;13.38;;;;;;;;;;5076774;28;20493;-76
2021/04/11 08:17:32;;;;;;;14.63;12.38;;;;;;;;;;5079841;28;20031;-76
2021/04/11 08:20:17;;;;;;;15.48;12.98;;;;;;;;;;5097068;28;20055;-75
2021/04/11 08:23:07;;;;;;;14.82;12.52;;;;;;;;;;5095933;28;20078;-77
2021/04/11 08:26:02;;;;;;;14.65;11.80;;;;;;;;;;5076723;28;20036;-74
2021/04/11 08:28:44;;;;;;;14.75;11.90;;;;;;;;;;5055228;28;20075;-74
2021/04/11 08:31:22;;;;;;;16.60;11.20;;;;;;;;;;5074792;28;20425;-75
2021/04/11 08:33:53;;;;;;;14.50;12.38;;;;;;;;;;5074710;28;20076;-74
2021/04/11 08:36:33;;;;;;;17.35;12.07;;;;;;;;;;5074912;28;20028;-75
2021/04/11 08:39:26;;;;;;;18.83;14.75;;;;;;;;;;5074443;28;20550;-75
2021/04/11 08:42:10;;;;;;;17.40;14.10;;;;;;;;;;5074917;28;20403;-75
2021/04/11 08:44:54;;;;;;;16.90;14.15;;;;;;;;;;5056925;28;20482;-74
2021/04/11 08:47:26;;;;;;;19.45;15.57;;;;;;;;;;5074410;28;20534;-74
2021/04/11 08:50:04;;;;;;;25.75;18.92;;;;;;;;;;5082454;28;20090;-75
2021/04/11 08:52:57;;;;;;;21.73;17.88;;;;;;;;;;5080860;28;20032;-75
2021/04/11 08:55:44;;;;;;;23.55;16.48;;;;;;;;;;5084030;28;20032;-77
2021/04/11 08:58:32;;;;;;;20.08;16.38;;;;;;;;;;5084567;28;20020;-76
2021/04/11 09:01:36;;;;;;;26.98;15.27;;;;;;;;;;5083784;28;20032;-76
2021/04/11 09:04:33;;;;;;;18.33;14.52;;;;;;;;;;5080611;28;20616;-75
2021/04/11 09:07:24;;;;;;;16.35;13.68;;;;;;;;;;5074303;28;20032;-73
2021/04/11 09:10:17;;;;;;;16.13;12.32;;;;;;;;;;5079693;28;20050;-73
2021/04/11 09:13:30;;;;;;;13.23;10.82;;;;;;;;;;5093126;28;20035;-72
2021/04/11 09:16:40;;;;;;;11.60;9.50;;;;;;;;;;5094251;28;20032;-74
2021/04/11 09:19:25;;;;;;;14.82;9.88;;;;;;;;;;5088438;28;20043;-73
2021/04/11 09:22:27;;;;;;;9.85;7.47;;;;;;;;;;5094153;28;20397;-74
2021/04/11 09:25:10;;;;;;;10.68;7.50;;;;;;;;;;5092806;28;20097;-74
2021/04/11 09:28:03;;;;;;;7.70;5.95;;;;;;;;;;5093784;28;20046;-74
2021/04/11 09:30:53;;;;;;;11.75;5.85;;;;;;;;;;5093266;28;20051;-75
2021/04/11 09:33:48;;;;;;;11.25;6.70;;;;;;;;;;5093827;28;20458;-76
2021/04/11 09:36:24;;;;;;;11.05;5.55;;;;;;;;;;5095529;28;20428;-78
2021/04/11 09:39:02;;;;;;;7.07;4.65;;;;;;;;;;5095531;28;20089;-82
2021/04/11 09:41:37;;;;;;;6.40;3.92;;;;;;;;;;5096688;28;20086;-77
2021/04/11 09:44:13;;;;;;;3.67;3.35;;;;;;;;;;5095952;28;20158;-79
2021/04/11 09:46:52;;;;;;;5.18;3.90;;;;;;;;;;5097495;28;20031;-79
2021/04/11 09:49:45;;;;;;;4.95;3.25;;;;;;;;;;5095024;28;20081;-78
2021/04/11 09:52:33;;;;;;;3.38;2.70;;;;;;;;;;5096618;28;20123;-77
2021/04/11 09:55:10;;;;;;;2.53;2.20;;;;;;;;;;5095184;28;20036;-77
2021/04/11 09:58:09;;;;;;;2.40;2.03;;;;;;;;;;5095390;28;20081;-76
2021/04/11 10:00:41;;;;;;;3.40;2.50;;;;;;;;;;5094910;28;20039;-77
2021/04/11 10:03:21;;;;;;;2.67;2.33;;;;;;;;;;5093828;28;20036;-76
2021/04/11 10:06:07;;;;;;;3.15;2.35;;;;;;;;;;5094486;28;20101;-76
2021/04/11 10:08:55;;;;;;;2.38;2.08;;;;;;;;;;5093584;28;20051;-76
2021/04/11 10:11:41;;;;;;;2.47;2.10;;;;;;;;;;5085004;28;20036;-77
2021/04/11 10:14:41;;;;;;;8.20;3.47;;;;;;;;;;5095726;28;20125;-80
2021/04/11 10:17:43;;;;;;;2.15;1.88;;;;;;;;;;5097240;28;20058;-80
2021/04/11 10:20:24;;;;;;;2.58;2.25;;;;;;;;;;5098967;28;20107;-78
2021/04/11 10:23:07;;;;;;;4.20;2.67;;;;;;;;;;5096880;28;20043;-81
2021/04/11 10:25:42;;;;;;;3.35;2.70;;;;;;;;;;5096538;28;20036;-81
2021/04/11 10:28:26;;;;;;;4.45;2.75;;;;;;;;;;5093006;28;20047;-77
2021/04/11 10:31:18;;;;;;;3.13;2.40;;;;;;;;;;5093171;28;20052;-77
2021/04/11 10:33:52;;;;;;;3.58;2.60;;;;;;;;;;5094859;28;20044;-79
2021/04/11 10:36:33;;;;;;;3.38;2.45;;;;;;;;;;5097515;28;20035;-78
2021/04/11 10:38:58;;;;;;;2.60;2.20;;;;;;;;;;5098536;28;20043;-78
2021/04/11 10:41:30;;;;;;;3.83;2.50;;;;;;;;;;5096503;28;20032;-83
2021/04/11 10:44:01;;;;;;;4.20;2.28;;;;;;;;;;5103688;28;20024;-82
2021/04/11 10:46:51;;;;;;;2.47;2.28;;;;;;;;;;5103028;28;20493;-79
2021/04/11 10:49:26;;;;;;;2.20;1.90;;;;;;;;;;5091969;28;20048;-79
2021/04/11 10:52:10;;;;;;;2.30;2.10;;;;;;;;;;5103277;28;20040;-80
2021/04/11 10:54:41;;;;;;;3.00;2.40;;;;;;;;;;5105521;28;20043;-80
2021/04/11 10:57:35;;;;;;;2.47;1.92;;;;;;;;;;5103255;28;20035;-77
2021/04/11 11:00:23;;;;;;;1.60;1.50;;;;;;;;;;5097766;28;20046;-77
2021/04/11 11:03:13;;;;;;;1.70;1.60;;;;;;;;;;5097165;28;20028;-80
2021/04/11 11:05:46;;;;;;;2.28;1.88;;;;;;;;;;5086008;28;20032;-78
2021/04/11 11:08:19;;;;;;;1.85;1.67;;;;;;;;;;5077290;28;20410;-80
2021/04/11 11:10:58;;;;;;;2.30;2.10;;;;;;;;;;5099320;28;20082;-82
2021/04/11 11:13:50;;;;;;;1.85;1.75;;;;;;;;;;5101882;28;20054;-82
2021/04/11 11:16:37;;;;;;;4.90;2.47;;;;;;;;;;5101823;28;20032;-79
2021/04/11 11:19:16;;;;;;;2.67;2.47;;;;;;;;;;5104086;28;20077;-83
2021/04/11 11:22:01;;;;;;;2.65;2.45;;;;;;;;;;5100735;28;20120;-78
2021/04/11 11:25:01;;;;;;;3.37;3.07;;;;;;;;;;5097771;28;20028;-76
2021/04/11 11:27:41;;;;;;;3.13;2.83;;;;;;;;;;5098786;28;20115;-76
2021/04/11 11:30:31;;;;;;;3.63;3.13;;;;;;;;;;5096849;28;20473;-75
2021/04/11 11:33:23;;;;;;;3.60;3.30;;;;;;;;;;5095214;28;20060;-76
2021/04/11 11:36:15;;;;;;;3.53;3.22;;;;;;;;;;5088382;28;20102;-75
2021/04/11 11:38:51;;;;;;;4.95;3.47;;;;;;;;;;5095720;28;20030;-77
2021/04/11 11:42:06;;;;;;;5.40;4.05;;;;;;;;;;5096093;28;20093;-77
2021/04/11 11:44:50;;;;;;;6.78;4.13;;;;;;;;;;5091643;28;20397;-77
2021/04/11 11:47:25;;;;;;;4.43;3.78;;;;;;;;;;5096132;28;20032;-76
2021/04/11 11:50:04;;;;;;;5.00;4.50;;;;;;;;;;5096175;28;20046;-76
2021/04/11 11:52:44;;;;;;;4.25;3.80;;;;;;;;;;5094598;28;20363;-76
2021/04/11 11:55:22;;;;;;;3.90;3.50;;;;;;;;;;5095082;28;20126;-77
2021/04/11 11:58:12;;;;;;;4.82;4.30;;;;;;;;;;5096032;28;20039;-76
2021/04/11 12:00:44;;;;;;;4.38;3.95;;;;;;;;;;5095914;28;20129;-75
2021/04/11 12:03:30;;;;;;;7.90;4.75;;;;;;;;;;5095727;28;20035;-75
2021/04/11 12:06:11;;;;;;;5.00;4.50;;;;;;;;;;5096014;28;20110;-75
2021/04/11 12:08:53;;;;;;;5.03;4.40;;;;;;;;;;5096111;28;20035;-74
2021/04/11 12:11:48;;;;;;;4.93;4.43;;;;;;;;;;5096732;28;20497;-75
2021/04/11 12:14:17;;;;;;;5.30;4.68;;;;;;;;;;5096453;28;20404;-75
2021/04/11 12:16:47;;;;;;;5.00;4.53;;;;;;;;;;5097929;28;20474;-75
2021/04/11 12:19:12;;;;;;;6.50;5.30;;;;;;;;;;5096820;28;20054;-75
2021/04/11 12:21:54;;;;;;;5.72;4.97;;;;;;;;;;5098003;28;20052;-75
2021/04/11 12:24:28;;;;;;;6.13;5.43;;;;;;;;;;5098080;28;20498;-74
2021/04/11 12:26:56;;;;;;;5.10;4.57;;;;;;;;;;5097867;28;20074;-75
2021/04/11 12:29:26;;;;;;;4.78;4.38;;;;;;;;;;5098293;28;20043;-75
2021/04/11 12:32:08;;;;;;;6.05;4.93;;;;;;;;;;5097823;28;20048;-75
2021/04/11 12:35:04;;;;;;;5.10;4.60;;;;;;;;;;5099062;28;20552;-75
2021/04/11 12:37:48;;;;;;;6.40;4.75;;;;;;;;;;5098300;28;20032;-75
2021/04/11 12:40:13;;;;;;;5.47;4.93;;;;;;;;;;5096653;28;20039;-75
2021/04/11 12:42:48;;;;;;;7.50;5.40;;;;;;;;;;5097781;28;20028;-75
2021/04/11 12:45:23;;;;;;;5.55;4.95;;;;;;;;;;5097956;28;20089;-75
2021/04/11 12:48:06;;;;;;;7.05;5.15;;;;;;;;;;5095583;28;20189;-75
2021/04/11 12:50:35;;;;;;;5.60;5.00;;;;;;;;;;5096139;28;20572;-75
2021/04/11 12:53:27;;;;;;;7.10;5.25;;;;;;;;;;5095361;28;20024;-75
2021/04/11 12:55:55;;;;;;;5.07;4.38;;;;;;;;;;5091639;28;20101;-75
2021/04/11 12:58:42;;;;;;;5.10;4.35;;;;;;;;;;5094682;28;20043;-75
2021/04/11 13:01:17;;;;;;;4.57;3.63;;;;;;;;;;5093558;28;20036;-75
2021/04/11 13:04:06;;;;;;;4.32;3.92;;;;;;;;;;5094028;28;20050;-75
2021/04/11 13:06:45;;;;;;;6.40;3.55;;;;;;;;;;5094027;28;20036;-74
2021/04/11 13:09:26;;;;;;;7.78;4.38;;;;;;;;;;5093870;28;20024;-75
2021/04/11 13:12:04;;;;;;;4.75;3.95;;;;;;;;;;5093417;28;20069;-75
2021/04/11 13:14:45;;;;;;;3.55;2.95;;;;;;;;;;5094920;28;20051;-75
2021/04/11 13:17:42;;;;;;;3.17;2.55;;;;;;;;;;5094502;28;20039;-75
2021/04/11 13:20:33;;;;;;;4.30;2.83;;;;;;;;;;5093544;28;20032;-74
2021/04/11 13:23:29;;;;;;;4.55;3.25;;;;;;;;;;5094297;28;20027;-75
2021/04/11 13:26:06;;;;;;;4.28;2.60;;;;;;;;;;5083944;28;20109;-75
2021/04/11 13:28:38;;;;;;;2.55;1.90;;;;;;;;;;5092561;28;20035;-74
2021/04/11 13:31:33;;;;;;;2.20;1.75;;;;;;;;;;5093880;28;20476;-74
2021/04/11 13:34:05;;;;;;;2.42;1.65;;;;;;;;;;5094155;28;20511;-75
2021/04/11 13:36:37;;;;;;;3.15;1.77;;;;;;;;;;5094031;28;20413;-75
2021/04/11 13:39:13;;;;;;;2.35;1.85;;;;;;;;;;5094070;28;20079;-74
2021/04/11 13:42:08;;;;;;;2.40;1.95;;;;;;;;;;5092698;28;20455;-75
2021/04/11 13:44:44;;;;;;;8.00;1.90;;;;;;;;;;5090934;28;20047;-75
2021/04/11 13:47:30;;;;;;;2.53;2.03;;;;;;;;;;5094043;28;20024;-75
2021/04/11 13:50:09;;;;;;;2.58;2.15;;;;;;;;;;5093710;28;20119;-74
2021/04/11 13:52:45;;;;;;;2.70;2.15;;;;;;;;;;5093718;28;20033;-74
2021/04/11 13:55:14;;;;;;;3.08;2.15;;;;;;;;;;5093414;28;20097;-74
2021/04/11 13:57:49;;;;;;;1.63;1.52;;;;;;;;;;5093084;28;20110;-74
2021/04/11 14:00:44;;;;;;;3.75;1.80;;;;;;;;;;5094374;28;20031;-77
2021/04/11 14:03:17;;;;;;;1.65;1.55;;;;;;;;;;5085846;28;20044;-75
2021/04/11 14:05:49;;;;;;;2.13;1.95;;;;;;;;;;5092523;28;20043;-75
2021/04/11 14:08:27;;;;;;;3.75;1.80;;;;;;;;;;5093805;28;20039;-75
2021/04/11 14:11:25;;;;;;;1.95;1.73;;;;;;;;;;5093810;28;20481;-75
2021/04/11 14:14:02;;;;;;;1.60;1.50;;;;;;;;;;5093589;28;20089;-75
2021/04/11 14:17:08;;;;;;;2.35;1.77;;;;;;;;;;5094057;28;20036;-75
2021/04/11 14:19:59;;;;;;;1.87;1.70;;;;;;;;;;5093141;28;20039;-75
2021/04/11 14:22:35;;;;;;;2.20;1.65;;;;;;;;;;5091071;28;20121;-75
2021/04/11 14:25:24;;;;;;;1.90;1.65;;;;;;;;;;5092617;28;20047;-75
2021/04/11 14:28:09;;;;;;;1.85;1.25;;;;;;;;;;5093626;28;20054;-75
2021/04/11 14:31:14;;;;;;;1.33;1.23;;;;;;;;;;5094198;28;20139;-75
2021/04/11 14:34:06;;;;;;;1.15;1.10;;;;;;;;;;5093122;28;20063;-74
2021/04/11 14:36:40;;;;;;;1.45;1.35;;;;;;;;;;5085423;28;20024;-75
2021/04/11 14:39:18;;;;;;;1.17;1.13;;;;;;;;;;5082665;28;20059;-76
2021/04/11 14:41:49;;;;;;;1.08;1.08;;;;;;;;;;5082128;28;20028;-75
2021/04/11 14:44:33;;;;;;;1.10;1.00;;;;;;;;;;5083229;28;20102;-75
2021/04/11 14:47:00;;;;;;;1.20;1.10;;;;;;;;;;5082780;28;20024;-75
2021/04/11 14:49:27;;;;;;;2.05;1.08;;;;;;;;;;5081731;28;20021;-75
2021/04/11 14:51:57;;;;;;;1.20;1.10;;;;;;;;;;5083323;28;20067;-75
2021/04/11 14:54:43;;;;;;;0.90;0.90;;;;;;;;;;5083185;28;20079;-75
2021/04/11 14:57:14;;;;;;;1.05;1.05;;;;;;;;;;5083674;28;20032;-76
2021/04/11 14:59:57;;;;;;;1.40;1.00;;;;;;;;;;5082899;28;20048;-75
2021/04/11 15:02:58;;;;;;;2.67;1.02;;;;;;;;;;5083666;28;20027;-75
2021/04/11 15:05:23;;;;;;;0.98;0.98;;;;;;;;;;5060267;28;20044;-75
2021/04/11 15:08:07;;;;;;;1.77;1.10;;;;;;;;;;5083511;28;21737;-74
2021/04/11 15:10:41;;;;;;;1.40;1.30;;;;;;;;;;5081554;28;20024;-75
2021/04/11 15:13:15;;;;;;;1.90;1.63;;;;;;;;;;5075151;28;20036;-75
2021/04/11 15:16:05;;;;;;;2.28;1.63;;;;;;;;;;5073172;28;20466;-76
2021/04/11 15:19:06;;;;;;;1.40;1.30;;;;;;;;;;5071385;28;20037;-76
2021/04/11 15:21:42;;;;;;;1.25;1.10;;;;;;;;;;5072570;28;20051;-75
2021/04/11 15:24:13;;;;;;;;;;;;;;;;;;5073232;28;20037;-75
2021/04/11 15:26:55;;;;;;;1.10;1.05;;;;;;;;;;5072675;28;19913;-75
2021/04/11 15:29:32;;;;;;;1.15;1.00;;;;;;;;;;5074395;28;20471;-76
2021/04/11 15:32:02;;;;;;;2.28;1.30;;;;;;;;;;5058248;28;20049;-75
2021/04/11 15:34:36;;;;;;;1.20;1.10;;;;;;;;;;5076050;28;20119;-75
2021/04/11 15:37:37;;;;;;;1.85;0.90;;;;;;;;;;5076105;28;20032;-75
2021/04/11 15:40:28;;;;;;;2.42;1.10;;;;;;;;;;5086519;28;20071;-75